EST,Max TemperatureF,Mean TemperatureF,Min TemperatureF,Max Dew PointF,MeanDew PointF,Min DewpointF,Max Humidity, Mean Humidity, Min Humidity, Max Sea Level PressureIn, Mean Sea Level PressureIn, Min Sea Level PressureIn, Max VisibilityMiles, Mean VisibilityMiles, Min VisibilityMiles, Max Wind SpeedMPH, Mean Wind SpeedMPH, Max Gust SpeedMPH,PrecipitationIn, CloudCover, Events, WindDirDegrees
2012-11-1,76,61,46,49,39,29,86,53,19,30.06,30.00,29.95,10,9,5,12,2,20,0.00,0,,180
2012-11-2,81,61,40,54,45,37,86,58,30,30.12,30.06,30.00,10,10,10,9,2,16,0.00,0,,203
2012-11-3,87,70,53,62,57,52,93,65,37,30.16,30.09,30.04,10,5,0,7,1,12,0.00,2,Fog,193
2012-11-4,86,72,57,65,60,54,90,65,40,30.12,30.06,29.99,10,6,0,9,2,15,0.01,1,Fog,206
2012-11-5,76,64,52,63,48,36,87,55,23,30.07,30.02,29.98,10,9,1,12,3,21,0.01,1,,17
2012-11-6,73,64,54,54,51,46,86,65,44,30.01,29.94,29.86,10,9,2,14,5,20,0.41,7,Rain,92
2012-11-7,68,55,41,46,42,37,82,61,40,30.07,29.98,29.89,10,10,8,9,2,16,0.00,5,,4
2012-11-8,69,54,39,43,39,36,92,62,32,30.22,30.16,30.07,10,9,7,12,2,16,0.00,0,,7
2012-11-9,74,56,37,45,38,31,89,56,22,30.33,30.27,30.22,10,8,4,6,0,20,0.00,1,,-1
2012-11-10,76,57,38,47,39,33,89,55,21,30.40,30.34,30.30,10,8,2,8,1,12,0.00,0,,120
2012-11-11,82,66,49,58,54,46,93,66,39,30.38,30.33,30.29,10,10,4,13,5,18,0.00,3,,100
2012-11-12,80,70,60,64,60,57,90,72,54,30.31,30.25,30.22,10,10,7,10,2,14,0.00,4,,146
2012-11-13,76,66,56,61,57,50,90,72,54,30.28,30.22,30.18,10,7,0,12,3,14,T,6,Fog,14
2012-11-14,63,59,54,58,53,50,93,83,72,30.32,30.25,30.20,10,7,2,12,7,15,0.00,8,,51
2012-11-15,58,55,51,52,49,46,93,83,72,30.28,30.22,30.18,10,6,2,13,7,17,0.02,8,Rain,26
2012-11-16,54,52,50,48,47,45,89,83,77,30.30,30.26,30.22,10,8,2,12,6,15,0.00,7,,32
2012-11-17,66,58,50,45,43,38,80,64,48,30.33,30.29,30.24,10,10,10,16,9,23,0.00,7,,30
2012-11-18,73,62,51,50,45,37,72,58,44,30.33,30.28,30.22,10,10,10,13,8,17,0.00,3,,28
2012-11-19,69,59,49,54,49,44,80,67,53,30.27,30.21,30.14,10,10,10,15,7,18,0.00,3,,18
2012-11-20,75,64,53,53,51,49,83,62,41,30.19,30.13,30.07,10,10,6,16,3,21,0.00,4,,23
2012-11-21,75,61,46,50,45,41,89,60,31,30.17,30.12,30.08,10,9,2,14,3,20,0.00,0,,24
2012-11-22,73,56,39,41,36,30,86,54,22,30.27,30.22,30.17,10,8,2,15,3,20,0.00,0,,22
2012-11-23,77,57,37,46,41,33,89,60,31,30.26,30.17,30.09,10,9,5,10,1,16,0.00,0,,260
2012-11-24,68,52,36,48,37,26,83,54,24,30.18,30.12,30.07,10,10,10,13,2,17,0.00,1,,300
2012-11-25,68,49,29,31,25,15,85,50,14,30.25,30.19,30.15,10,10,10,8,1,15,0.00,0,,345
2012-11-26,73,52,30,40,31,24,85,51,17,30.30,30.23,30.19,10,10,8,7,1,10,0.00,0,,115
2012-11-27,71,60,48,54,48,39,93,65,37,30.24,30.19,30.13,10,9,4,12,1,14,0.07,7,Rain,41
2012-11-28,57,55,52,52,50,46,93,83,72,30.39,30.29,30.19,10,5,0,14,4,16,0.00,8,Fog,9
2012-11-29,72,58,44,51,46,40,86,65,44,30.41,30.36,30.32,10,8,1,9,4,13,0.00,2,,58
2012-11-30,77,62,46,54,49,43,86,62,38,30.37,30.32,30.26,10,10,8,10,3,14,0.00,2,,73